sensor_id;sensor_type;location;lat;lon;timestamp;P1;durP1;ratioP1;P2;durP2;ratioP2
13406;SDS011;6774;48.208;10.766;2023-02-28T00:01:26;4.30;;;2.37;;
13406;SDS011;6774;48.208;10.766;2023-02-28T00:03:55;1.40;;;1.27;;
13406;SDS011;6774;48.208;10.766;2023-02-28T00:06:23;1.83;;;1.67;;
13406;SDS011;6774;48.208;10.766;2023-02-28T00:08:51;2.70;;;2.00;;
13406;SDS011;6774;48.208;10.766;2023-02-28T00:11:20;2.00;;;1.80;;
13406;SDS011;6774;48.208;10.766;2023-02-28T00:13:48;2.30;;;1.83;;
13406;SDS011;6774;48.208;10.766;2023-02-28T00:16:17;2.77;;;1.47;;
13406;SDS011;6774;48.208;10.766;2023-02-28T00:18:46;2.90;;;1.67;;
13406;SDS011;6774;48.208;10.766;2023-02-28T00:21:15;1.67;;;1.53;;
13406;SDS011;6774;48.208;10.766;2023-02-28T00:23:43;1.60;;;1.27;;
13406;SDS011;6774;48.208;10.766;2023-02-28T00:26:11;1.40;;;1.30;;
13406;SDS011;6774;48.208;10.766;2023-02-28T00:28:45;3.53;;;1.50;;
13406;SDS011;6774;48.208;10.766;2023-02-28T00:31:13;2.83;;;2.30;;
13406;SDS011;6774;48.208;10.766;2023-02-28T00:33:41;1.47;;;1.37;;
13406;SDS011;6774;48.208;10.766;2023-02-28T00:36:10;3.03;;;1.87;;
13406;SDS011;6774;48.208;10.766;2023-02-28T00:38:39;2.00;;;1.63;;
13406;SDS011;6774;48.208;10.766;2023-02-28T00:41:08;1.90;;;1.80;;
13406;SDS011;6774;48.208;10.766;2023-02-28T00:43:37;2.13;;;1.87;;
13406;SDS011;6774;48.208;10.766;2023-02-28T00:46:08;2.17;;;2.03;;
13406;SDS011;6774;48.208;10.766;2023-02-28T00:48:36;2.80;;;2.60;;
13406;SDS011;6774;48.208;10.766;2023-02-28T00:51:04;1.20;;;0.97;;
13406;SDS011;6774;48.208;10.766;2023-02-28T00:53:32;2.50;;;2.30;;
13406;SDS011;6774;48.208;10.766;2023-02-28T00:56:00;1.43;;;1.33;;
13406;SDS011;6774;48.208;10.766;2023-02-28T00:58:28;2.40;;;1.77;;
13406;SDS011;6774;48.208;10.766;2023-02-28T01:00:56;2.30;;;2.00;;
13406;SDS011;6774;48.208;10.766;2023-02-28T01:03:26;2.43;;;2.10;;
13406;SDS011;6774;48.208;10.766;2023-02-28T01:05:54;2.17;;;1.60;;
13406;SDS011;6774;48.208;10.766;2023-02-28T01:08:21;1.80;;;1.70;;
13406;SDS011;6774;48.208;10.766;2023-02-28T01:10:49;2.63;;;1.70;;
13406;SDS011;6774;48.208;10.766;2023-02-28T01:13:17;2.53;;;2.33;;
13406;SDS011;6774;48.208;10.766;2023-02-28T01:15:48;1.40;;;1.30;;
13406;SDS011;6774;48.208;10.766;2023-02-28T01:18:18;2.03;;;1.93;;
13406;SDS011;6774;48.208;10.766;2023-02-28T01:20:49;2.20;;;1.60;;
13406;SDS011;6774;48.208;10.766;2023-02-28T01:23:18;3.27;;;2.60;;
13406;SDS011;6774;48.208;10.766;2023-02-28T01:25:46;2.03;;;1.87;;
13406;SDS011;6774;48.208;10.766;2023-02-28T01:28:14;1.57;;;1.47;;
13406;SDS011;6774;48.208;10.766;2023-02-28T01:30:42;1.87;;;1.60;;
13406;SDS011;6774;48.208;10.766;2023-02-28T01:33:10;4.17;;;1.97;;
13406;SDS011;6774;48.208;10.766;2023-02-28T01:35:37;3.13;;;1.60;;
13406;SDS011;6774;48.208;10.766;2023-02-28T01:38:06;1.80;;;1.70;;
13406;SDS011;6774;48.208;10.766;2023-02-28T01:40:47;1.97;;;1.87;;
13406;SDS011;6774;48.208;10.766;2023-02-28T01:43:19;2.57;;;2.37;;
13406;SDS011;6774;48.208;10.766;2023-02-28T01:45:48;1.50;;;1.40;;
13406;SDS011;6774;48.208;10.766;2023-02-28T01:48:16;4.80;;;2.80;;
13406;SDS011;6774;48.208;10.766;2023-02-28T01:50:45;1.73;;;1.63;;
13406;SDS011;6774;48.208;10.766;2023-02-28T01:53:18;2.20;;;2.00;;
13406;SDS011;6774;48.208;10.766;2023-02-28T01:55:49;2.13;;;2.03;;
13406;SDS011;6774;48.208;10.766;2023-02-28T01:58:20;2.03;;;1.67;;
13406;SDS011;6774;48.208;10.766;2023-02-28T02:00:48;2.87;;;2.57;;
13406;SDS011;6774;48.208;10.766;2023-02-28T02:03:16;2.03;;;1.87;;
13406;SDS011;6774;48.208;10.766;2023-02-28T02:05:47;2.20;;;2.07;;
13406;SDS011;6774;48.208;10.766;2023-02-28T02:08:18;3.17;;;2.00;;
13406;SDS011;6774;48.208;10.766;2023-02-28T02:10:50;1.80;;;1.70;;
13406;SDS011;6774;48.208;10.766;2023-02-28T02:16:34;2.27;;;2.17;;
13406;SDS011;6774;48.208;10.766;2023-02-28T02:19:16;3.50;;;2.03;;
13406;SDS011;6774;48.208;10.766;2023-02-28T02:22:12;2.50;;;2.30;;
13406;SDS011;6774;48.208;10.766;2023-02-28T02:25:06;2.27;;;1.63;;
13406;SDS011;6774;48.208;10.766;2023-02-28T02:30:53;3.13;;;2.83;;
13406;SDS011;6774;48.208;10.766;2023-02-28T02:36:47;2.43;;;2.27;;
13406;SDS011;6774;48.208;10.766;2023-02-28T02:39:19;2.73;;;1.80;;
13406;SDS011;6774;48.208;10.766;2023-02-28T02:41:56;2.13;;;1.70;;
13406;SDS011;6774;48.208;10.766;2023-02-28T02:44:34;2.53;;;2.37;;
13406;SDS011;6774;48.208;10.766;2023-02-28T02:47:08;3.10;;;2.80;;
13406;SDS011;6774;48.208;10.766;2023-02-28T02:49:41;1.93;;;1.80;;
13406;SDS011;6774;48.208;10.766;2023-02-28T02:52:12;2.67;;;1.83;;
13406;SDS011;6774;48.208;10.766;2023-02-28T02:54:43;2.63;;;2.43;;
13406;SDS011;6774;48.208;10.766;2023-02-28T02:57:17;2.10;;;1.60;;
13406;SDS011;6774;48.208;10.766;2023-02-28T02:59:51;4.30;;;2.50;;
13406;SDS011;6774;48.208;10.766;2023-02-28T03:02:22;3.23;;;2.93;;
13406;SDS011;6774;48.208;10.766;2023-02-28T03:04:58;2.17;;;2.07;;
13406;SDS011;6774;48.208;10.766;2023-02-28T03:07:28;2.20;;;1.90;;
13406;SDS011;6774;48.208;10.766;2023-02-28T03:09:56;2.80;;;2.60;;
13406;SDS011;6774;48.208;10.766;2023-02-28T03:12:27;4.43;;;2.63;;
13406;SDS011;6774;48.208;10.766;2023-02-28T03:15:08;3.03;;;2.83;;
13406;SDS011;6774;48.208;10.766;2023-02-28T03:17:49;2.37;;;2.17;;
13406;SDS011;6774;48.208;10.766;2023-02-28T03:20:35;2.80;;;2.67;;
13406;SDS011;6774;48.208;10.766;2023-02-28T03:23:10;2.40;;;2.20;;
13406;SDS011;6774;48.208;10.766;2023-02-28T03:25:52;2.20;;;2.10;;
13406;SDS011;6774;48.208;10.766;2023-02-28T03:28:27;2.30;;;1.87;;
13406;SDS011;6774;48.208;10.766;2023-02-28T03:31:03;2.60;;;2.40;;
13406;SDS011;6774;48.208;10.766;2023-02-28T03:33:40;2.50;;;2.23;;
13406;SDS011;6774;48.208;10.766;2023-02-28T03:36:13;2.20;;;1.97;;
13406;SDS011;6774;48.208;10.766;2023-02-28T03:38:44;2.63;;;1.87;;
13406;SDS011;6774;48.208;10.766;2023-02-28T03:41:16;2.83;;;2.60;;
13406;SDS011;6774;48.208;10.766;2023-02-28T03:43:49;2.93;;;2.73;;
13406;SDS011;6774;48.208;10.766;2023-02-28T03:46:22;3.07;;;2.87;;
13406;SDS011;6774;48.208;10.766;2023-02-28T03:48:55;2.90;;;2.30;;
13406;SDS011;6774;48.208;10.766;2023-02-28T03:51:28;4.77;;;4.47;;
13406;SDS011;6774;48.208;10.766;2023-02-28T03:53:58;3.27;;;3.00;;
13406;SDS011;6774;48.208;10.766;2023-02-28T03:56:31;2.73;;;2.50;;
13406;SDS011;6774;48.208;10.766;2023-02-28T03:59:02;6.83;;;3.40;;
13406;SDS011;6774;48.208;10.766;2023-02-28T04:01:35;3.30;;;3.00;;
13406;SDS011;6774;48.208;10.766;2023-02-28T04:04:05;3.33;;;3.03;;
13406;SDS011;6774;48.208;10.766;2023-02-28T04:06:34;4.40;;;4.10;;
13406;SDS011;6774;48.208;10.766;2023-02-28T04:09:02;4.40;;;2.77;;
13406;SDS011;6774;48.208;10.766;2023-02-28T04:11:32;6.10;;;3.43;;
13406;SDS011;6774;48.208;10.766;2023-02-28T04:14:03;3.03;;;2.80;;
13406;SDS011;6774;48.208;10.766;2023-02-28T04:16:32;3.67;;;3.30;;
13406;SDS011;6774;48.208;10.766;2023-02-28T04:19:01;3.33;;;2.83;;
13406;SDS011;6774;48.208;10.766;2023-02-28T04:21:31;3.60;;;3.30;;
13406;SDS011;6774;48.208;10.766;2023-02-28T04:24:02;5.10;;;3.83;;
13406;SDS011;6774;48.208;10.766;2023-02-28T04:26:31;3.33;;;3.03;;
13406;SDS011;6774;48.208;10.766;2023-02-28T04:29:00;3.77;;;3.43;;
13406;SDS011;6774;48.208;10.766;2023-02-28T04:31:30;3.63;;;3.33;;
13406;SDS011;6774;48.208;10.766;2023-02-28T04:33:58;5.10;;;3.90;;
13406;SDS011;6774;48.208;10.766;2023-02-28T04:36:26;4.97;;;3.53;;
13406;SDS011;6774;48.208;10.766;2023-02-28T04:38:56;3.37;;;3.10;;
13406;SDS011;6774;48.208;10.766;2023-02-28T04:41:24;3.67;;;3.40;;
13406;SDS011;6774;48.208;10.766;2023-02-28T04:43:52;4.97;;;4.57;;
13406;SDS011;6774;48.208;10.766;2023-02-28T04:46:20;3.67;;;3.43;;
13406;SDS011;6774;48.208;10.766;2023-02-28T04:48:48;7.40;;;4.63;;
13406;SDS011;6774;48.208;10.766;2023-02-28T04:51:16;4.30;;;3.90;;
13406;SDS011;6774;48.208;10.766;2023-02-28T04:53:46;5.27;;;4.70;;
13406;SDS011;6774;48.208;10.766;2023-02-28T04:56:16;3.93;;;3.53;;
13406;SDS011;6774;48.208;10.766;2023-02-28T04:58:44;4.57;;;4.17;;
13406;SDS011;6774;48.208;10.766;2023-02-28T05:01:17;5.40;;;4.63;;
13406;SDS011;6774;48.208;10.766;2023-02-28T05:03:47;7.97;;;4.70;;
13406;SDS011;6774;48.208;10.766;2023-02-28T05:06:16;4.07;;;3.70;;
13406;SDS011;6774;48.208;10.766;2023-02-28T05:08:44;5.57;;;5.07;;
13406;SDS011;6774;48.208;10.766;2023-02-28T05:11:14;5.40;;;4.47;;
13406;SDS011;6774;48.208;10.766;2023-02-28T05:13:46;5.00;;;4.57;;
13406;SDS011;6774;48.208;10.766;2023-02-28T05:16:15;5.33;;;4.90;;
13406;SDS011;6774;48.208;10.766;2023-02-28T05:18:44;4.43;;;4.00;;
13406;SDS011;6774;48.208;10.766;2023-02-28T05:21:21;6.50;;;6.00;;
13406;SDS011;6774;48.208;10.766;2023-02-28T05:23:55;5.87;;;5.33;;
13406;SDS011;6774;48.208;10.766;2023-02-28T05:26:26;5.80;;;5.07;;
13406;SDS011;6774;48.208;10.766;2023-02-28T05:28:54;7.20;;;4.10;;
13406;SDS011;6774;48.208;10.766;2023-02-28T05:31:23;6.33;;;5.57;;
13406;SDS011;6774;48.208;10.766;2023-02-28T05:33:51;5.70;;;4.47;;
13406;SDS011;6774;48.208;10.766;2023-02-28T05:36:19;7.93;;;7.13;;
13406;SDS011;6774;48.208;10.766;2023-02-28T05:38:47;6.27;;;5.67;;
13406;SDS011;6774;48.208;10.766;2023-02-28T05:41:15;5.03;;;4.63;;
13406;SDS011;6774;48.208;10.766;2023-02-28T05:43:47;5.63;;;5.13;;
13406;SDS011;6774;48.208;10.766;2023-02-28T05:46:15;6.17;;;5.67;;
13406;SDS011;6774;48.208;10.766;2023-02-28T05:48:45;5.77;;;5.23;;
13406;SDS011;6774;48.208;10.766;2023-02-28T05:51:14;7.60;;;6.90;;
13406;SDS011;6774;48.208;10.766;2023-02-28T05:53:42;7.50;;;6.27;;
13406;SDS011;6774;48.208;10.766;2023-02-28T05:56:10;7.63;;;6.37;;
13406;SDS011;6774;48.208;10.766;2023-02-28T05:58:38;7.80;;;7.00;;
13406;SDS011;6774;48.208;10.766;2023-02-28T06:01:21;9.53;;;6.90;;
13406;SDS011;6774;48.208;10.766;2023-02-28T06:03:51;9.20;;;6.40;;
13406;SDS011;6774;48.208;10.766;2023-02-28T06:06:19;7.63;;;6.90;;
13406;SDS011;6774;48.208;10.766;2023-02-28T06:08:47;6.93;;;5.87;;
13406;SDS011;6774;48.208;10.766;2023-02-28T06:11:15;7.30;;;6.70;;
13406;SDS011;6774;48.208;10.766;2023-02-28T06:13:42;8.27;;;7.57;;
13406;SDS011;6774;48.208;10.766;2023-02-28T06:16:10;7.50;;;6.17;;
13406;SDS011;6774;48.208;10.766;2023-02-28T06:18:40;7.43;;;6.57;;
13406;SDS011;6774;48.208;10.766;2023-02-28T06:21:08;7.70;;;7.00;;
13406;SDS011;6774;48.208;10.766;2023-02-28T06:23:35;7.93;;;7.00;;
13406;SDS011;6774;48.208;10.766;2023-02-28T06:26:04;8.53;;;7.50;;
13406;SDS011;6774;48.208;10.766;2023-02-28T06:28:32;9.40;;;8.13;;
13406;SDS011;6774;48.208;10.766;2023-02-28T06:31:05;7.63;;;6.93;;
13406;SDS011;6774;48.208;10.766;2023-02-28T06:33:34;7.40;;;6.27;;
13406;SDS011;6774;48.208;10.766;2023-02-28T06:36:03;8.20;;;6.60;;
13406;SDS011;6774;48.208;10.766;2023-02-28T06:38:32;6.83;;;6.20;;
13406;SDS011;6774;48.208;10.766;2023-02-28T06:41:00;7.33;;;6.50;;
13406;SDS011;6774;48.208;10.766;2023-02-28T06:43:29;8.20;;;7.40;;
13406;SDS011;6774;48.208;10.766;2023-02-28T06:45:59;8.27;;;7.23;;
13406;SDS011;6774;48.208;10.766;2023-02-28T06:48:28;11.37;;;8.70;;
13406;SDS011;6774;48.208;10.766;2023-02-28T06:51:01;7.83;;;7.03;;
13406;SDS011;6774;48.208;10.766;2023-02-28T06:53:31;7.57;;;6.87;;
13406;SDS011;6774;48.208;10.766;2023-02-28T06:55:59;8.10;;;7.40;;
13406;SDS011;6774;48.208;10.766;2023-02-28T06:58:32;8.67;;;7.87;;
13406;SDS011;6774;48.208;10.766;2023-02-28T07:01:00;8.60;;;7.57;;
13406;SDS011;6774;48.208;10.766;2023-02-28T07:03:28;7.27;;;6.57;;
13406;SDS011;6774;48.208;10.766;2023-02-28T07:05:59;10.60;;;9.50;;
13406;SDS011;6774;48.208;10.766;2023-02-28T07:08:27;8.30;;;7.57;;
13406;SDS011;6774;48.208;10.766;2023-02-28T07:10:57;15.03;;;8.60;;
13406;SDS011;6774;48.208;10.766;2023-02-28T07:13:25;12.07;;;8.20;;
13406;SDS011;6774;48.208;10.766;2023-02-28T07:15:54;7.50;;;6.80;;
13406;SDS011;6774;48.208;10.766;2023-02-28T07:18:23;10.27;;;7.47;;
13406;SDS011;6774;48.208;10.766;2023-02-28T07:20:52;8.70;;;8.00;;
13406;SDS011;6774;48.208;10.766;2023-02-28T07:23:20;8.13;;;7.43;;
13406;SDS011;6774;48.208;10.766;2023-02-28T07:25:49;8.47;;;7.67;;
13406;SDS011;6774;48.208;10.766;2023-02-28T07:28:18;10.57;;;7.97;;
13406;SDS011;6774;48.208;10.766;2023-02-28T07:30:46;9.10;;;8.37;;
13406;SDS011;6774;48.208;10.766;2023-02-28T07:33:14;8.37;;;7.50;;
13406;SDS011;6774;48.208;10.766;2023-02-28T07:35:43;11.03;;;7.63;;
13406;SDS011;6774;48.208;10.766;2023-02-28T07:38:11;6.60;;;6.00;;
13406;SDS011;6774;48.208;10.766;2023-02-28T07:40:39;10.60;;;8.27;;
13406;SDS011;6774;48.208;10.766;2023-02-28T07:43:07;9.13;;;8.23;;
13406;SDS011;6774;48.208;10.766;2023-02-28T07:45:37;9.37;;;8.47;;
13406;SDS011;6774;48.208;10.766;2023-02-28T07:48:05;8.33;;;7.63;;
13406;SDS011;6774;48.208;10.766;2023-02-28T07:50:33;10.30;;;9.40;;
13406;SDS011;6774;48.208;10.766;2023-02-28T07:53:01;9.43;;;8.47;;
13406;SDS011;6774;48.208;10.766;2023-02-28T07:55:29;11.50;;;8.80;;
13406;SDS011;6774;48.208;10.766;2023-02-28T07:57:57;9.43;;;8.53;;
13406;SDS011;6774;48.208;10.766;2023-02-28T08:00:26;8.70;;;6.70;;
13406;SDS011;6774;48.208;10.766;2023-02-28T08:02:56;11.77;;;10.67;;
13406;SDS011;6774;48.208;10.766;2023-02-28T08:05:25;8.80;;;8.07;;
13406;SDS011;6774;48.208;10.766;2023-02-28T08:07:52;8.27;;;7.53;;
13406;SDS011;6774;48.208;10.766;2023-02-28T08:10:21;8.50;;;7.70;;
13406;SDS011;6774;48.208;10.766;2023-02-28T08:12:49;12.73;;;9.17;;
13406;SDS011;6774;48.208;10.766;2023-02-28T08:15:17;9.90;;;8.90;;
13406;SDS011;6774;48.208;10.766;2023-02-28T08:17:45;9.50;;;8.60;;
13406;SDS011;6774;48.208;10.766;2023-02-28T08:20:14;8.83;;;7.93;;
13406;SDS011;6774;48.208;10.766;2023-02-28T08:22:42;8.53;;;7.73;;
13406;SDS011;6774;48.208;10.766;2023-02-28T08:25:11;8.73;;;7.93;;
13406;SDS011;6774;48.208;10.766;2023-02-28T08:27:39;9.97;;;9.07;;
13406;SDS011;6774;48.208;10.766;2023-02-28T08:30:09;9.77;;;8.33;;
13406;SDS011;6774;48.208;10.766;2023-02-28T08:32:37;9.33;;;8.50;;
13406;SDS011;6774;48.208;10.766;2023-02-28T08:35:06;9.27;;;8.37;;
13406;SDS011;6774;48.208;10.766;2023-02-28T08:37:36;8.27;;;6.57;;
13406;SDS011;6774;48.208;10.766;2023-02-28T08:40:05;9.83;;;8.93;;
13406;SDS011;6774;48.208;10.766;2023-02-28T08:42:33;9.63;;;8.63;;
13406;SDS011;6774;48.208;10.766;2023-02-28T08:45:02;9.67;;;8.70;;
13406;SDS011;6774;48.208;10.766;2023-02-28T08:47:30;8.97;;;8.10;;
13406;SDS011;6774;48.208;10.766;2023-02-28T08:49:58;13.33;;;8.87;;
13406;SDS011;6774;48.208;10.766;2023-02-28T08:52:26;9.70;;;8.90;;
13406;SDS011;6774;48.208;10.766;2023-02-28T08:54:55;10.63;;;9.33;;
13406;SDS011;6774;48.208;10.766;2023-02-28T08:57:23;8.97;;;8.27;;
13406;SDS011;6774;48.208;10.766;2023-02-28T08:59:52;9.97;;;8.83;;
13406;SDS011;6774;48.208;10.766;2023-02-28T09:02:20;10.47;;;9.57;;
13406;SDS011;6774;48.208;10.766;2023-02-28T09:04:49;10.57;;;9.57;;
13406;SDS011;6774;48.208;10.766;2023-02-28T09:07:16;9.30;;;7.47;;
13406;SDS011;6774;48.208;10.766;2023-02-28T09:09:44;9.70;;;8.40;;
13406;SDS011;6774;48.208;10.766;2023-02-28T09:12:22;12.20;;;8.80;;
13406;SDS011;6774;48.208;10.766;2023-02-28T09:14:51;9.83;;;8.90;;
13406;SDS011;6774;48.208;10.766;2023-02-28T09:17:23;10.93;;;9.67;;
13406;SDS011;6774;48.208;10.766;2023-02-28T09:19:56;9.93;;;9.13;;
13406;SDS011;6774;48.208;10.766;2023-02-28T09:22:24;9.50;;;8.53;;
13406;SDS011;6774;48.208;10.766;2023-02-28T09:24:53;11.90;;;9.77;;
13406;SDS011;6774;48.208;10.766;2023-02-28T09:27:22;14.13;;;9.23;;
13406;SDS011;6774;48.208;10.766;2023-02-28T09:29:50;10.30;;;9.33;;
13406;SDS011;6774;48.208;10.766;2023-02-28T09:32:18;9.23;;;8.43;;
13406;SDS011;6774;48.208;10.766;2023-02-28T09:34:46;9.50;;;8.57;;
13406;SDS011;6774;48.208;10.766;2023-02-28T09:37:14;10.07;;;8.93;;
13406;SDS011;6774;48.208;10.766;2023-02-28T09:39:41;10.40;;;9.50;;
13406;SDS011;6774;48.208;10.766;2023-02-28T09:42:11;13.97;;;9.37;;
13406;SDS011;6774;48.208;10.766;2023-02-28T09:44:50;9.10;;;8.33;;
13406;SDS011;6774;48.208;10.766;2023-02-28T09:47:20;8.73;;;7.93;;
13406;SDS011;6774;48.208;10.766;2023-02-28T09:49:54;9.33;;;8.53;;
13406;SDS011;6774;48.208;10.766;2023-02-28T09:52:26;9.87;;;8.73;;
13406;SDS011;6774;48.208;10.766;2023-02-28T09:54:59;9.87;;;7.30;;
13406;SDS011;6774;48.208;10.766;2023-02-28T09:57:31;8.63;;;6.93;;
13406;SDS011;6774;48.208;10.766;2023-02-28T10:00:06;9.03;;;8.17;;
13406;SDS011;6774;48.208;10.766;2023-02-28T10:02:49;8.30;;;7.50;;
13406;SDS011;6774;48.208;10.766;2023-02-28T10:05:27;9.93;;;8.77;;
13406;SDS011;6774;48.208;10.766;2023-02-28T10:08:00;8.37;;;7.67;;
13406;SDS011;6774;48.208;10.766;2023-02-28T10:10:35;10.23;;;8.63;;
13406;SDS011;6774;48.208;10.766;2023-02-28T10:13:06;11.90;;;9.27;;
13406;SDS011;6774;48.208;10.766;2023-02-28T10:15:44;10.97;;;9.87;;
13406;SDS011;6774;48.208;10.766;2023-02-28T10:18:16;8.60;;;7.80;;
13406;SDS011;6774;48.208;10.766;2023-02-28T10:20:51;9.30;;;8.40;;
13406;SDS011;6774;48.208;10.766;2023-02-28T10:23:21;9.17;;;8.17;;
13406;SDS011;6774;48.208;10.766;2023-02-28T10:25:53;8.83;;;7.67;;
13406;SDS011;6774;48.208;10.766;2023-02-28T10:28:24;10.00;;;9.20;;
13406;SDS011;6774;48.208;10.766;2023-02-28T10:30:55;9.73;;;8.83;;
13406;SDS011;6774;48.208;10.766;2023-02-28T10:33:25;10.60;;;9.57;;
13406;SDS011;6774;48.208;10.766;2023-02-28T10:35:56;11.67;;;8.97;;
13406;SDS011;6774;48.208;10.766;2023-02-28T10:38:26;7.43;;;6.83;;
13406;SDS011;6774;48.208;10.766;2023-02-28T10:41:06;13.80;;;11.93;;
13406;SDS011;6774;48.208;10.766;2023-02-28T10:43:35;12.77;;;10.87;;
13406;SDS011;6774;48.208;10.766;2023-02-28T10:46:09;8.40;;;7.60;;
13406;SDS011;6774;48.208;10.766;2023-02-28T10:48:42;8.77;;;7.73;;
13406;SDS011;6774;48.208;10.766;2023-02-28T10:51:15;9.73;;;7.93;;
13406;SDS011;6774;48.208;10.766;2023-02-28T10:53:47;11.00;;;10.00;;
13406;SDS011;6774;48.208;10.766;2023-02-28T10:56:27;8.27;;;7.47;;
13406;SDS011;6774;48.208;10.766;2023-02-28T10:58:56;9.00;;;8.03;;
13406;SDS011;6774;48.208;10.766;2023-02-28T11:01:36;7.60;;;7.03;;
13406;SDS011;6774;48.208;10.766;2023-02-28T11:04:16;9.53;;;8.00;;
13406;SDS011;6774;48.208;10.766;2023-02-28T11:06:45;9.23;;;8.43;;
13406;SDS011;6774;48.208;10.766;2023-02-28T11:09:18;8.60;;;7.80;;
13406;SDS011;6774;48.208;10.766;2023-02-28T11:11:50;9.80;;;7.93;;
13406;SDS011;6774;48.208;10.766;2023-02-28T11:14:19;8.03;;;7.30;;
13406;SDS011;6774;48.208;10.766;2023-02-28T11:16:50;9.57;;;8.57;;
13406;SDS011;6774;48.208;10.766;2023-02-28T11:19:20;8.37;;;7.57;;
13406;SDS011;6774;48.208;10.766;2023-02-28T11:21:53;8.47;;;7.77;;
13406;SDS011;6774;48.208;10.766;2023-02-28T11:24:25;7.60;;;6.90;;
13406;SDS011;6774;48.208;10.766;2023-02-28T11:26:57;9.57;;;8.07;;
13406;SDS011;6774;48.208;10.766;2023-02-28T11:29:26;8.30;;;6.83;;
13406;SDS011;6774;48.208;10.766;2023-02-28T11:32:04;9.70;;;8.80;;
13406;SDS011;6774;48.208;10.766;2023-02-28T11:34:39;11.33;;;10.13;;
13406;SDS011;6774;48.208;10.766;2023-02-28T11:37:10;14.63;;;10.00;;
13406;SDS011;6774;48.208;10.766;2023-02-28T11:39:41;9.13;;;8.37;;
13406;SDS011;6774;48.208;10.766;2023-02-28T11:42:16;8.53;;;7.33;;
13406;SDS011;6774;48.208;10.766;2023-02-28T11:45:03;8.10;;;7.30;;
13406;SDS011;6774;48.208;10.766;2023-02-28T11:47:47;8.50;;;7.27;;
13406;SDS011;6774;48.208;10.766;2023-02-28T11:50:22;8.00;;;7.27;;
13406;SDS011;6774;48.208;10.766;2023-02-28T11:53:05;11.30;;;6.83;;
13406;SDS011;6774;48.208;10.766;2023-02-28T11:55:42;12.03;;;9.30;;
13406;SDS011;6774;48.208;10.766;2023-02-28T11:58:23;8.43;;;7.63;;
13406;SDS011;6774;48.208;10.766;2023-02-28T12:01:03;8.13;;;7.40;;
13406;SDS011;6774;48.208;10.766;2023-02-28T12:03:48;8.47;;;7.67;;
13406;SDS011;6774;48.208;10.766;2023-02-28T12:06:27;9.23;;;8.53;;
13406;SDS011;6774;48.208;10.766;2023-02-28T12:09:02;7.17;;;6.57;;
13406;SDS011;6774;48.208;10.766;2023-02-28T12:11:43;8.13;;;7.43;;
13406;SDS011;6774;48.208;10.766;2023-02-28T12:14:22;8.90;;;8.07;;
13406;SDS011;6774;48.208;10.766;2023-02-28T12:17:04;12.50;;;7.33;;
13406;SDS011;6774;48.208;10.766;2023-02-28T12:19:46;8.37;;;6.67;;
13406;SDS011;6774;48.208;10.766;2023-02-28T12:22:28;8.03;;;7.33;;
13406;SDS011;6774;48.208;10.766;2023-02-28T12:25:18;7.93;;;7.23;;
13406;SDS011;6774;48.208;10.766;2023-02-28T12:27:50;8.53;;;7.73;;
13406;SDS011;6774;48.208;10.766;2023-02-28T12:30:21;8.30;;;7.67;;
13406;SDS011;6774;48.208;10.766;2023-02-28T12:32:53;8.10;;;7.30;;
13406;SDS011;6774;48.208;10.766;2023-02-28T12:35:26;8.40;;;7.73;;
13406;SDS011;6774;48.208;10.766;2023-02-28T12:38:02;9.03;;;7.67;;
13406;SDS011;6774;48.208;10.766;2023-02-28T12:40:34;6.87;;;6.17;;
13406;SDS011;6774;48.208;10.766;2023-02-28T12:43:10;10.33;;;9.33;;
13406;SDS011;6774;48.208;10.766;2023-02-28T12:45:42;6.83;;;6.13;;
13406;SDS011;6774;48.208;10.766;2023-02-28T12:48:15;8.17;;;7.47;;
13406;SDS011;6774;48.208;10.766;2023-02-28T12:50:49;8.10;;;7.53;;
13406;SDS011;6774;48.208;10.766;2023-02-28T12:53:18;7.40;;;6.67;;
13406;SDS011;6774;48.208;10.766;2023-02-28T12:55:56;7.23;;;6.63;;
13406;SDS011;6774;48.208;10.766;2023-02-28T12:58:35;8.60;;;7.80;;
13406;SDS011;6774;48.208;10.766;2023-02-28T13:01:14;7.23;;;6.70;;
13406;SDS011;6774;48.208;10.766;2023-02-28T13:04:06;8.83;;;7.90;;
13406;SDS011;6774;48.208;10.766;2023-02-28T13:06:59;7.50;;;7.00;;
13406;SDS011;6774;48.208;10.766;2023-02-28T13:09:38;8.30;;;6.90;;
13406;SDS011;6774;48.208;10.766;2023-02-28T13:12:12;7.23;;;6.63;;
13406;SDS011;6774;48.208;10.766;2023-02-28T13:14:41;7.53;;;7.03;;
13406;SDS011;6774;48.208;10.766;2023-02-28T13:17:10;7.77;;;7.00;;
13406;SDS011;6774;48.208;10.766;2023-02-28T13:19:40;8.20;;;7.17;;
13406;SDS011;6774;48.208;10.766;2023-02-28T13:22:17;7.63;;;6.93;;
13406;SDS011;6774;48.208;10.766;2023-02-28T13:24:47;7.90;;;7.20;;
13406;SDS011;6774;48.208;10.766;2023-02-28T13:33:21;6.13;;;5.60;;
13406;SDS011;6774;48.208;10.766;2023-02-28T13:36:08;8.83;;;7.97;;
13406;SDS011;6774;48.208;10.766;2023-02-28T13:38:52;7.43;;;6.83;;
13406;SDS011;6774;48.208;10.766;2023-02-28T13:44:15;8.07;;;7.27;;
13406;SDS011;6774;48.208;10.766;2023-02-28T13:49:53;8.53;;;7.73;;
13406;SDS011;6774;48.208;10.766;2023-02-28T13:52:22;9.37;;;7.40;;
13406;SDS011;6774;48.208;10.766;2023-02-28T13:55:02;7.10;;;6.50;;
13406;SDS011;6774;48.208;10.766;2023-02-28T13:57:48;7.30;;;6.37;;
13406;SDS011;6774;48.208;10.766;2023-02-28T14:00:29;8.87;;;8.13;;
13406;SDS011;6774;48.208;10.766;2023-02-28T14:03:18;7.60;;;7.00;;
13406;SDS011;6774;48.208;10.766;2023-02-28T14:06:10;6.63;;;6.10;;
13406;SDS011;6774;48.208;10.766;2023-02-28T14:08:51;8.07;;;7.43;;
13406;SDS011;6774;48.208;10.766;2023-02-28T14:11:28;6.50;;;5.47;;
13406;SDS011;6774;48.208;10.766;2023-02-28T14:13:58;7.33;;;6.67;;
13406;SDS011;6774;48.208;10.766;2023-02-28T14:16:28;9.33;;;7.93;;
13406;SDS011;6774;48.208;10.766;2023-02-28T14:19:09;7.10;;;6.33;;
13406;SDS011;6774;48.208;10.766;2023-02-28T14:21:40;9.13;;;7.27;;
13406;SDS011;6774;48.208;10.766;2023-02-28T14:24:23;10.07;;;8.57;;
13406;SDS011;6774;48.208;10.766;2023-02-28T14:27:32;7.77;;;7.13;;
13406;SDS011;6774;48.208;10.766;2023-02-28T14:30:13;6.93;;;6.33;;
13406;SDS011;6774;48.208;10.766;2023-02-28T14:33:01;8.67;;;8.00;;
13406;SDS011;6774;48.208;10.766;2023-02-28T14:35:40;7.03;;;6.43;;
13406;SDS011;6774;48.208;10.766;2023-02-28T14:38:18;5.90;;;5.50;;
13406;SDS011;6774;48.208;10.766;2023-02-28T14:40:51;8.77;;;7.90;;
13406;SDS011;6774;48.208;10.766;2023-02-28T14:43:23;7.30;;;6.70;;
13406;SDS011;6774;48.208;10.766;2023-02-28T14:45:53;7.70;;;7.00;;
13406;SDS011;6774;48.208;10.766;2023-02-28T14:48:24;8.53;;;7.13;;
13406;SDS011;6774;48.208;10.766;2023-02-28T14:50:54;8.23;;;7.63;;
13406;SDS011;6774;48.208;10.766;2023-02-28T14:53:25;9.30;;;7.10;;
13406;SDS011;6774;48.208;10.766;2023-02-28T14:55:54;8.37;;;7.00;;
13406;SDS011;6774;48.208;10.766;2023-02-28T14:58:25;6.50;;;5.80;;
13406;SDS011;6774;48.208;10.766;2023-02-28T15:00:55;7.73;;;7.13;;
13406;SDS011;6774;48.208;10.766;2023-02-28T15:03:27;10.23;;;8.47;;
13406;SDS011;6774;48.208;10.766;2023-02-28T15:05:59;10.87;;;9.93;;
13406;SDS011;6774;48.208;10.766;2023-02-28T15:08:29;11.03;;;7.53;;
13406;SDS011;6774;48.208;10.766;2023-02-28T15:11:01;7.83;;;7.20;;
13406;SDS011;6774;48.208;10.766;2023-02-28T15:13:36;8.00;;;7.30;;
13406;SDS011;6774;48.208;10.766;2023-02-28T15:16:08;10.67;;;9.60;;
13406;SDS011;6774;48.208;10.766;2023-02-28T15:18:42;11.10;;;10.10;;
13406;SDS011;6774;48.208;10.766;2023-02-28T15:21:15;7.07;;;6.47;;
13406;SDS011;6774;48.208;10.766;2023-02-28T15:23:45;8.93;;;7.43;;
13406;SDS011;6774;48.208;10.766;2023-02-28T15:26:17;8.70;;;7.90;;
13406;SDS011;6774;48.208;10.766;2023-02-28T15:28:49;7.77;;;6.93;;
13406;SDS011;6774;48.208;10.766;2023-02-28T15:31:21;7.20;;;6.70;;
13406;SDS011;6774;48.208;10.766;2023-02-28T15:33:54;9.30;;;7.67;;
13406;SDS011;6774;48.208;10.766;2023-02-28T15:36:25;7.30;;;5.97;;